Time;durP1;ratioP1;P1;durP2;ratioP2;P2;SDS_P1;SDS_P2;PMS_P1;PMS_P2;Temp;Humidity;BMP_temperature;BMP_pressure;BME280_temperature;BME280_humidity;BME280_pressure;Samples;Min_cycle;Max_cycle;Signal;HPM_P1;HPM_P2
2021/12/19 00:10:47;;;;;;;45.78;22.15;;;;;;;2.70;100.00;97814.38;4987052;28;20181;-49
2021/12/19 00:13:15;;;;;;;40.05;18.52;;;;;;;2.54;100.00;97812.38;4984395;28;20066;-44
2021/12/19 00:15:44;;;;;;;51.53;23.92;;;;;;;2.66;100.00;97815.41;4963978;28;20462;-46
2021/12/19 00:18:12;;;;;;;47.78;21.23;;;;;;;2.37;100.00;97820.88;4964977;28;20070;-48
2021/12/19 00:20:41;;;;;;;49.88;23.02;;;;;;;2.32;100.00;97816.75;4964051;28;20078;-49
2021/12/19 00:23:31;;;;;;;37.37;18.17;;;;;;;1.99;100.00;97811.94;4965210;28;20074;-46
2021/12/19 00:26:01;;;;;;;41.78;18.50;;;;;;;2.06;100.00;97836.81;4965719;28;21047;-42
2021/12/19 00:28:30;;;;;;;43.30;19.42;;;;;;;2.11;100.00;97847.06;4962946;28;20067;-44
2021/12/19 00:30:58;;;;;;;44.13;20.67;;;;;;;1.69;100.00;97846.88;4967983;28;20086;-46
2021/12/19 00:33:26;;;;;;;34.13;16.42;;;;;;;1.84;100.00;97833.31;4965871;28;20070;-49
2021/12/19 00:35:55;;;;;;;45.30;21.17;;;;;;;1.87;100.00;97831.47;4965029;28;20075;-47
2021/12/19 00:38:24;;;;;;;44.63;19.33;;;;;;;2.13;100.00;97835.69;4981821;28;20777;-46
2021/12/19 00:40:53;;;;;;;42.92;19.60;;;;;;;1.60;100.00;97825.53;4980696;28;20093;-44
2021/12/19 00:43:32;;;;;;;54.05;23.38;;;;;;;1.83;100.00;97811.69;4963758;28;20087;-47
2021/12/19 00:46:05;;;;;;;51.85;21.67;;;;;;;1.86;100.00;97821.97;4965215;28;20083;-47
2021/12/19 00:48:34;;;;;;;54.28;23.30;;;;;;;2.23;100.00;97814.50;4967610;28;21546;-51
2021/12/19 00:51:03;;;;;;;48.65;22.95;;;;;;;2.10;100.00;97804.56;4979228;28;20073;-46
2021/12/19 00:53:31;;;;;;;44.60;20.63;;;;;;;1.82;100.00;97811.72;4995923;28;20070;-44
2021/12/19 00:56:00;;;;;;;51.30;22.35;;;;;;;2.35;100.00;97801.00;4983384;28;20077;-47
2021/12/19 00:58:30;;;;;;;48.70;21.63;;;;;;;1.79;100.00;97801.44;4983482;28;20192;-51
2021/12/19 01:00:59;;;;;;;53.20;22.75;;;;;;;2.02;100.00;97804.00;4994155;28;20093;-47
2021/12/19 01:03:27;;;;;;;49.63;21.17;;;;;;;1.84;100.00;97797.75;4986053;28;20472;-43
2021/12/19 01:05:56;;;;;;;48.40;21.45;;;;;;;2.25;100.00;97790.13;4965143;28;20074;-46
2021/12/19 01:08:25;;;;;;;42.90;17.77;;;;;;;1.98;100.00;97789.44;4966578;28;20080;-46
2021/12/19 01:10:54;;;;;;;43.45;19.00;;;;;;;2.05;100.00;97787.44;4978412;28;20062;-47
2021/12/19 01:13:23;;;;;;;37.65;15.70;;;;;;;1.81;100.00;97797.03;4979513;28;20097;-55
2021/12/19 01:15:53;;;;;;;38.95;18.75;;;;;;;1.84;100.00;97795.16;4960602;28;20093;-44
2021/12/19 01:18:22;;;;;;;;;;;;;;;1.80;100.00;97797.94;4967425;28;20521;-47
2021/12/19 01:20:50;;;;;;;39.60;18.08;;;;;;;1.71;100.00;97800.88;4981793;28;19965;-48
2021/12/19 01:23:19;;;;;;;46.97;20.75;;;;;;;2.07;100.00;97794.28;4993242;28;20042;-46
2021/12/19 01:25:47;;;;;;;42.33;18.95;;;;;;;1.74;100.00;97800.75;4976644;28;20066;-50
2021/12/19 01:28:16;;;;;;;52.20;20.33;;;;;;;1.79;100.00;97802.31;4964006;28;20085;-46
2021/12/19 01:30:45;;;;;;;41.00;17.77;;;;;;;2.08;100.00;97813.34;4965767;28;20093;-46
2021/12/19 01:33:15;;;;;;;39.47;15.73;;;;;;;1.74;100.00;97809.41;4985578;28;20065;-48
2021/12/19 01:35:44;;;;;;;51.88;22.30;;;;;;;1.72;100.00;97806.03;4959127;28;20089;-46
2021/12/19 01:38:13;;;;;;;36.03;16.30;;;;;;;1.64;100.00;97810.66;4955058;28;20073;-45
2021/12/19 01:40:41;;;;;;;35.88;14.93;;;;;;;1.58;100.00;97811.75;4968868;28;20069;-46
2021/12/19 01:43:10;;;;;;;54.97;21.13;;;;;;;1.78;100.00;97808.38;4981665;28;20089;-46
2021/12/19 01:45:40;;;;;;;47.40;20.38;;;;;;;1.56;100.00;97802.28;4990023;28;20096;-51
2021/12/19 01:48:09;;;;;;;;;;;;;;;1.48;100.00;97799.09;4967883;28;20062;-49
2021/12/19 01:50:41;;;;;;;43.30;18.60;;;;;;;1.44;100.00;97806.16;4965330;28;19949;-48
2021/12/19 01:53:12;;;;;;;49.65;20.13;;;;;;;1.78;100.00;97803.19;4971710;28;20551;-47
2021/12/19 01:55:43;;;;;;;38.08;17.42;;;;;;;1.61;100.00;97806.41;4984298;28;20050;-45
2021/12/19 01:58:13;;;;;;;47.17;20.15;;;;;;;1.60;100.00;97806.47;4977513;28;20090;-43
2021/12/19 02:00:43;;;;;;;43.58;18.33;;;;;;;1.72;100.00;97790.44;4962925;28;20105;-49
2021/12/19 02:03:12;;;;;;;45.90;19.33;;;;;;;1.61;100.00;97802.97;4988423;28;20459;-51
2021/12/19 02:05:43;;;;;;;53.00;21.15;;;;;;;1.78;100.00;97790.19;4988014;28;20081;-45
2021/12/19 02:08:12;;;;;;;56.20;21.70;;;;;;;2.03;100.00;97792.72;4975430;28;20070;-46
2021/12/19 02:10:41;;;;;;;40.88;16.83;;;;;;;1.81;100.00;97797.03;4969814;28;20069;-44
2021/12/19 02:13:12;;;;;;;38.42;16.40;;;;;;;1.85;100.00;97801.19;4983542;28;20087;-51
2021/12/19 02:15:41;;;;;;;51.25;20.15;;;;;;;1.90;100.00;97796.69;4988866;28;20081;-51
2021/12/19 02:18:11;;;;;;;57.13;22.25;;;;;;;2.31;100.00;97794.25;4984801;28;20491;-49
2021/12/19 02:20:42;;;;;;;50.83;21.55;;;;;;;2.50;100.00;97794.34;4983161;28;20133;-49
2021/12/19 02:23:11;;;;;;;32.55;13.48;;;;;;;2.00;100.00;97795.44;4974404;28;20089;-47
2021/12/19 02:25:40;;;;;;;53.90;19.77;;;;;;;1.93;100.00;97790.50;4970255;28;20061;-46
2021/12/19 02:28:09;;;;;;;47.20;19.58;;;;;;;2.08;100.00;97800.34;4987635;28;20081;-50
2021/12/19 02:30:38;;;;;;;49.83;19.95;;;;;;;1.52;100.00;97798.13;4990518;28;21402;-47
2021/12/19 02:33:09;;;;;;;52.67;21.17;;;;;;;1.95;100.00;97796.50;4969127;28;20070;-46
2021/12/19 02:35:40;;;;;;;51.42;19.33;;;;;;;2.12;100.00;97796.69;4964627;28;20133;-48
2021/12/19 02:49:26;;;;;;;52.67;19.20;;;;;;;2.00;100.00;97778.97;4969067;28;20082;-48
2021/12/19 02:51:56;;;;;;;53.22;19.73;;;;;;;1.88;100.00;97775.06;4988282;28;20086;-49
2021/12/19 02:54:26;;;;;;;57.00;20.10;;;;;;;2.12;100.00;97776.72;4986798;28;20563;-48
2021/12/19 02:56:54;;;;;;;35.92;14.93;;;;;;;1.86;100.00;97766.50;4973583;28;20070;-49
2021/12/19 02:59:23;;;;;;;49.30;20.70;;;;;;;1.61;100.00;97769.16;4962709;28;20078;-47
2021/12/19 03:01:52;;;;;;;55.17;20.35;;;;;;;1.82;100.00;97770.09;4963709;28;20074;-43
2021/12/19 03:04:22;;;;;;;57.33;19.73;;;;;;;2.06;100.00;97770.91;4966253;28;20498;-44
2021/12/19 03:06:51;;;;;;;61.30;21.67;;;;;;;2.12;100.00;97753.31;4965033;28;20105;-51
2021/12/19 03:09:35;;;;;;;55.53;20.63;;;;;;;1.92;100.00;97742.00;4980529;28;20066;-47
2021/12/19 03:12:14;;;;;;;54.67;20.33;;;;;;;1.97;100.00;97742.69;4968190;28;20073;-48
2021/12/19 03:20:15;;;;;;;39.05;14.05;;;;;;;1.48;100.00;97729.81;4992115;28;20077;-44
2021/12/19 03:22:43;;;;;;;62.35;22.23;;;;;;;1.89;100.00;97732.53;4978290;28;20800;-53
2021/12/19 03:25:12;;;;;;;47.72;18.80;;;;;;;1.74;100.00;97736.59;4990736;28;20538;-52
2021/12/19 03:27:41;;;;;;;52.25;19.58;;;;;;;2.25;100.00;97752.84;4993749;28;20457;-48
2021/12/19 03:30:11;;;;;;;55.30;21.50;;;;;;;2.31;100.00;97750.00;4985573;28;20563;-50
2021/12/19 03:32:39;;;;;;;53.60;19.40;;;;;;;1.99;100.00;97751.25;4994306;28;20489;-43
2021/12/19 03:35:09;;;;;;;42.53;15.52;;;;;;;2.06;100.00;97753.53;4976996;28;20121;-43
2021/12/19 03:37:41;;;;;;;42.33;17.05;;;;;;;1.51;100.00;97745.25;4966014;28;20114;-49
2021/12/19 03:40:12;;;;;;;42.35;15.10;;;;;;;1.73;100.00;97745.31;4967243;28;20086;-46
2021/12/19 03:42:44;;;;;;;40.05;13.98;;;;;;;1.90;100.00;97745.50;4991239;28;20101;-50
2021/12/19 03:45:15;;;;;;;53.80;19.23;;;;;;;2.24;100.00;97738.13;4986308;28;20054;-45
2021/12/19 03:47:44;;;;;;;54.72;19.10;;;;;;;2.12;100.00;97727.28;4984504;28;20088;-48
2021/12/19 03:50:16;;;;;;;61.47;21.88;;;;;;;2.44;100.00;97719.06;4982776;28;20061;-44
2021/12/19 03:52:44;;;;;;;60.40;21.15;;;;;;;2.09;100.00;97716.16;4987087;28;20081;-46
2021/12/19 03:55:13;;;;;;;58.33;20.92;;;;;;;2.20;100.00;97713.13;4990927;28;20081;-44
2021/12/19 03:57:43;;;;;;;43.05;17.58;;;;;;;1.86;100.00;97710.13;4987548;28;20074;-52
2021/12/19 04:00:14;;;;;;;62.75;20.48;;;;;;;2.14;100.00;97709.88;4988492;28;20544;-43
2021/12/19 04:02:42;;;;;;;53.10;18.40;;;;;;;1.95;100.00;97711.50;4981391;28;20045;-48
2021/12/19 04:05:11;;;;;;;66.88;21.90;;;;;;;1.88;100.00;97712.66;4982018;28;20066;-45
2021/12/19 04:07:39;;;;;;;76.15;21.52;;;;;;;2.09;100.00;97709.19;4977299;28;20552;-49
2021/12/19 04:10:08;;;;;;;58.83;18.52;;;;;;;2.11;100.00;97706.53;4961906;28;20082;-49
2021/12/19 04:12:37;;;;;;;50.85;17.83;;;;;;;1.96;100.00;97704.53;4987092;28;20097;-48
2021/12/19 04:15:07;;;;;;;49.05;18.05;;;;;;;1.93;100.00;97696.84;4972405;28;20350;-48
2021/12/19 04:17:35;;;;;;;;;;;;;;;1.85;100.00;97692.81;4975075;28;20069;-50
2021/12/19 04:20:05;;;;;;;45.20;16.40;;;;;;;1.93;100.00;97707.25;4990463;28;20072;-50
2021/12/19 04:22:33;;;;;;;51.38;16.85;;;;;;;1.93;100.00;97702.94;4979031;28;20073;-52
2021/12/19 04:25:02;;;;;;;41.58;16.90;;;;;;;2.10;100.00;97697.06;4983523;28;20074;-51
2021/12/19 04:27:30;;;;;;;41.33;15.43;;;;;;;1.86;100.00;97697.13;4966461;28;20063;-47
2021/12/19 04:29:58;;;;;;;31.88;12.75;;;;;;;1.83;100.00;97696.41;4979409;28;20088;-46
2021/12/19 04:32:33;;;;;;;48.88;16.40;;;;;;;1.70;100.00;97698.63;4983156;28;20518;-43
2021/12/19 04:35:01;;;;;;;43.78;15.20;;;;;;;1.85;100.00;97681.56;4984065;28;20088;-53
2021/12/19 04:37:57;;;;;;;44.47;16.77;;;;;;;2.09;100.00;97677.97;4980775;28;20079;-48
2021/12/19 04:40:35;;;;;;;64.50;20.25;;;;;;;2.44;100.00;97669.63;4963022;28;20643;-46
2021/12/19 04:52:04;;;;;;;48.45;17.15;;;;;;;2.09;100.00;97651.94;4982269;28;20400;-53
2021/12/19 04:54:49;;;;;;;29.13;12.35;;;;;;;1.74;100.00;97648.19;4985549;28;20066;-45
2021/12/19 04:57:30;;;;;;;25.48;11.73;;;;;;;1.69;100.00;97646.66;4967296;28;20078;-49
2021/12/19 05:00:03;;;;;;;;;;;;;;;1.80;100.00;97658.34;4982724;28;20077;-50
2021/12/19 05:02:45;;;;;;;25.63;9.98;;;;;;;1.71;100.00;97650.91;4987504;28;20003;-43
2021/12/19 05:05:43;;;;;;;21.40;10.38;;;;;;;1.75;100.00;97654.22;4989149;28;20093;-49
2021/12/19 05:16:30;;;;;;;32.05;12.63;;;;;;;2.07;100.00;97678.97;4963850;28;20074;-51
2021/12/19 05:19:05;;;;;;;18.35;9.02;;;;;;;1.67;100.00;97680.53;4964250;28;20074;-48
2021/12/19 05:21:38;;;;;;;31.10;12.02;;;;;;;1.86;100.00;97685.88;4964486;28;20456;-48
2021/12/19 05:24:45;;;;;;;29.38;11.55;;;;;;;1.71;100.00;97676.06;4980119;28;20104;-50
2021/12/19 05:27:11;;;;;;;32.78;13.35;;;;;;;1.74;100.00;97674.19;4964398;28;20073;-47
2021/12/19 05:29:39;;;;;;;33.05;13.50;;;;;;;1.57;100.00;97679.19;4965393;28;20525;-47
2021/12/19 05:32:08;;;;;;;30.30;12.52;;;;;;;1.79;100.00;97674.88;4958542;28;20071;-47
2021/12/19 05:34:37;;;;;;;39.05;15.43;;;;;;;1.81;100.00;97667.81;4964751;28;20517;-45
2021/12/19 05:45:24;;;;;;;22.63;10.32;;;;;;;1.86;100.00;97650.31;4955710;28;20047;-46
2021/12/19 05:47:53;;;;;;;35.22;14.40;;;;;;;1.84;100.00;97651.25;4958972;28;20074;-47
2021/12/19 05:50:23;;;;;;;33.13;13.52;;;;;;;1.57;100.00;97638.44;4962702;28;20070;-49
2021/12/19 05:52:53;;;;;;;34.90;11.52;;;;;;;1.72;100.00;97639.63;4983750;28;20077;-45
2021/12/19 05:55:21;;;;;;;31.50;12.32;;;;;;;1.75;100.00;97651.63;4979232;28;20077;-47
2021/12/19 05:57:50;;;;;;;38.42;13.85;;;;;;;2.19;100.00;97656.78;4962357;28;20079;-46
2021/12/19 06:00:19;;;;;;;25.30;12.02;;;;;;;2.15;100.00;97653.47;4963137;28;20077;-49
2021/12/19 06:02:48;;;;;;;34.72;14.60;;;;;;;2.13;100.00;97650.06;4962272;28;20105;-50
2021/12/19 06:05:16;;;;;;;37.83;14.63;;;;;;;2.34;100.00;97643.13;4974492;28;20070;-47
2021/12/19 06:07:45;;;;;;;33.40;12.93;;;;;;;1.83;100.00;97637.41;4987657;28;20077;-45
2021/12/19 06:10:15;;;;;;;26.50;11.32;;;;;;;1.93;100.00;97648.31;4976072;28;20082;-52
2021/12/19 06:12:44;;;;;;;34.88;13.57;;;;;;;2.03;100.00;97635.75;4957062;28;20075;-45
2021/12/19 06:15:12;;;;;;;40.58;14.32;;;;;;;2.30;100.00;97646.75;4961807;28;20655;-48
2021/12/19 06:17:44;;;;;;;35.55;14.40;;;;;;;2.32;100.00;97645.78;4967042;28;20079;-48
2021/12/19 06:20:13;;;;;;;40.20;15.50;;;;;;;2.48;100.00;97642.53;4990481;28;20081;-50
2021/12/19 06:22:42;;;;;;;45.00;14.85;;;;;;;2.33;100.00;97641.44;4976856;28;20062;-49
2021/12/19 06:25:11;;;;;;;47.65;16.25;;;;;;;2.31;100.00;97643.28;4962049;28;20054;-51
2021/12/19 06:27:41;;;;;;;41.00;15.82;;;;;;;2.36;100.00;97638.69;4967241;28;20086;-51
2021/12/19 06:30:10;;;;;;;36.55;13.80;;;;;;;2.30;100.00;97638.97;4978684;28;20078;-48
2021/12/19 06:32:39;;;;;;;46.83;16.88;;;;;;;2.54;100.00;97637.06;4981409;28;20070;-45
2021/12/19 06:35:12;;;;;;;51.97;18.08;;;;;;;2.28;100.00;97643.41;4985580;28;20078;-44
2021/12/19 06:37:40;;;;;;;46.97;16.20;;;;;;;2.58;100.00;97647.31;4982722;28;20062;-49
2021/12/19 06:40:10;;;;;;;47.88;16.48;;;;;;;2.36;100.00;97638.69;4988079;28;20094;-48
2021/12/19 06:42:40;;;;;;;49.20;17.55;;;;;;;2.32;100.00;97631.94;4984682;28;20480;-47
2021/12/19 06:45:09;;;;;;;43.85;16.52;;;;;;;2.28;100.00;97613.00;4981504;28;20092;-47
2021/12/19 06:47:38;;;;;;;45.15;16.55;;;;;;;2.09;100.00;97606.88;4986646;28;20070;-50
2021/12/19 06:50:08;;;;;;;49.55;17.83;;;;;;;2.63;100.00;97596.78;4974272;28;20073;-49
2021/12/19 06:52:37;;;;;;;41.88;15.02;;;;;;;2.14;100.00;97605.78;4965728;28;20069;-50
2021/12/19 06:55:07;;;;;;;29.92;12.35;;;;;;;1.99;100.00;97606.41;4991289;28;20486;-48
2021/12/19 06:57:36;;;;;;;38.03;14.65;;;;;;;2.14;100.00;97605.78;4985771;28;20464;-44
2021/12/19 07:00:08;;;;;;;23.42;10.05;;;;;;;1.84;100.00;97601.84;4980567;28;20074;-43
2021/12/19 07:02:37;;;;;;;30.60;12.65;;;;;;;1.74;100.00;97603.13;4976763;28;20055;-50
2021/12/19 07:05:06;;;;;;;34.78;13.98;;;;;;;2.12;100.00;97602.38;4962022;28;20101;-47
2021/12/19 07:07:35;;;;;;;43.55;14.57;;;;;;;1.83;100.00;97602.78;4965062;28;20070;-44
2021/12/19 07:10:05;;;;;;;46.05;15.90;;;;;;;2.25;100.00;97622.69;4967627;28;20094;-48
2021/12/19 07:12:33;;;;;;;31.48;11.85;;;;;;;1.71;100.00;97626.66;4985913;28;20058;-48
2021/12/19 07:15:02;;;;;;;35.30;13.43;;;;;;;1.71;100.00;97624.91;4987423;28;20069;-51
2021/12/19 07:17:32;;;;;;;24.48;9.43;;;;;;;1.71;100.00;97626.66;4971543;28;20077;-46
2021/12/19 07:20:00;;;;;;;28.83;11.77;;;;;;;1.95;100.00;97619.63;4969864;28;20449;-46
2021/12/19 07:22:29;;;;;;;29.92;11.80;;;;;;;1.90;100.00;97627.63;4986336;28;20077;-48
2021/12/19 07:24:57;;;;;;;27.73;11.23;;;;;;;1.64;100.00;97613.88;4987221;28;20085;-44
2021/12/19 07:27:25;;;;;;;24.05;11.18;;;;;;;1.70;100.00;97611.97;4960947;28;20094;-46
2021/12/19 07:29:57;;;;;;;26.65;12.13;;;;;;;1.46;100.00;97608.59;4972160;28;20549;-46
2021/12/19 07:32:25;;;;;;;30.48;11.55;;;;;;;1.61;100.00;97611.41;4966527;28;20069;-46
2021/12/19 07:35:15;;;;;;;22.05;10.07;;;;;;;1.56;100.00;97607.31;4967377;28;20071;-48
2021/12/19 07:37:45;;;;;;;27.85;10.80;;;;;;;1.54;100.00;97601.31;4968750;28;20105;-47
2021/12/19 07:40:16;;;;;;;28.40;11.57;;;;;;;1.50;100.00;97590.19;4982819;28;20085;-47
2021/12/19 07:42:46;;;;;;;30.27;11.77;;;;;;;1.52;100.00;97596.19;4968829;28;20078;-49
2021/12/19 07:45:14;;;;;;;41.40;13.70;;;;;;;1.92;100.00;97583.31;4963335;28;20073;-48
2021/12/19 07:48:01;;;;;;;24.92;9.48;;;;;;;1.77;100.00;97590.00;4965388;28;20734;-47
2021/12/19 07:50:33;;;;;;;27.73;11.45;;;;;;;1.86;100.00;97584.44;4963012;28;20077;-50
2021/12/19 07:53:03;;;;;;;26.17;11.07;;;;;;;1.60;100.00;97586.31;4962497;28;20065;-44
2021/12/19 07:55:32;;;;;;;31.73;12.93;;;;;;;1.39;100.00;97580.25;4966603;28;20073;-46
2021/12/19 07:58:01;;;;;;;25.23;12.13;;;;;;;1.64;100.00;97577.50;4986206;28;20081;-45
2021/12/19 08:00:29;;;;;;;26.23;11.35;;;;;;;1.39;100.00;97576.78;4988896;28;20077;-51
2021/12/19 08:02:58;;;;;;;32.63;12.23;;;;;;;1.49;100.00;97582.47;4969143;28;20077;-51
2021/12/19 08:05:26;;;;;;;31.48;14.27;;;;;;;1.82;100.00;97583.69;4960883;28;20525;-47
2021/12/19 08:08:01;;;;;;;19.17;10.10;;;;;;;1.52;100.00;97588.41;4966733;28;20101;-46
2021/12/19 08:13:16;;;;;;;28.20;12.55;;;;;;;1.22;100.00;97592.19;4965037;28;20078;-49
2021/12/19 08:15:44;;;;;;;37.80;13.32;;;;;;;1.33;100.00;97587.44;4965705;28;20094;-55
2021/12/19 08:18:12;;;;;;;16.63;8.35;;;;;;;1.52;100.00;97587.56;4977443;28;20058;-48
2021/12/19 08:20:41;;;;;;;20.65;10.15;;;;;;;0.92;100.00;97580.31;4983251;28;20069;-49
2021/12/19 08:23:11;;;;;;;22.58;10.30;;;;;;;1.61;100.00;97587.16;4981075;28;20082;-47
2021/12/19 08:25:39;;;;;;;11.68;6.55;;;;;;;1.53;100.00;97584.03;4979374;28;20098;-49
2021/12/19 08:28:08;;;;;;;18.25;9.23;;;;;;;1.45;100.00;97576.56;4963177;28;20090;-50
2021/12/19 08:30:36;;;;;;;25.90;11.55;;;;;;;1.61;100.00;97564.63;4981910;28;20463;-50
2021/12/19 08:33:04;;;;;;;19.58;9.52;;;;;;;1.08;100.00;97569.34;4982360;28;20536;-48
2021/12/19 08:35:33;;;;;;;25.73;11.07;;;;;;;1.18;100.00;97555.94;4991813;28;20082;-47
2021/12/19 08:38:02;;;;;;;38.08;13.05;;;;;;;1.29;100.00;97546.88;4976918;28;20066;-46
2021/12/19 08:40:32;;;;;;;29.92;12.57;;;;;;;1.63;100.00;97552.41;4964137;28;20074;-50
2021/12/19 08:43:01;;;;;;;;;;;;;;;1.17;100.00;97541.28;4967047;28;20524;-50
2021/12/19 08:45:29;;;;;;;17.17;9.20;;;;;;;1.34;100.00;97555.31;4982417;28;19956;-52
2021/12/19 08:47:58;;;;;;;36.88;14.15;;;;;;;1.44;100.00;97556.66;4985924;28;20066;-55
2021/12/19 08:50:26;;;;;;;30.02;12.77;;;;;;;1.64;100.00;97554.09;4983933;28;20067;-53
2021/12/19 08:52:55;;;;;;;27.80;12.25;;;;;;;1.40;100.00;97558.53;4982466;28;20070;-55
2021/12/19 08:55:23;;;;;;;35.92;12.75;;;;;;;1.67;100.00;97555.72;4980629;28;20070;-49
2021/12/19 08:57:53;;;;;;;35.28;13.75;;;;;;;1.75;100.00;97558.84;4985372;28;21045;-46
2021/12/19 09:00:22;;;;;;;23.00;10.40;;;;;;;1.89;100.00;97560.88;4982529;28;20069;-50
2021/12/19 09:02:54;;;;;;;33.78;13.35;;;;;;;2.03;100.00;97560.28;4984312;28;20038;-45
2021/12/19 09:05:23;;;;;;;29.90;13.20;;;;;;;2.02;100.00;97548.22;4979068;28;20065;-47
2021/12/19 09:07:51;;;;;;;32.80;11.88;;;;;;;1.99;100.00;97548.34;4977351;28;20066;-45
2021/12/19 09:10:21;;;;;;;37.67;13.45;;;;;;;1.62;100.00;97552.50;4964758;28;20088;-52
2021/12/19 09:12:50;;;;;;;27.20;11.45;;;;;;;1.59;100.00;97550.84;4966333;28;20097;-48
2021/12/19 09:15:20;;;;;;;30.38;11.25;;;;;;;1.84;100.00;97553.28;4961129;28;20074;-50
2021/12/19 09:17:49;;;;;;;30.00;12.40;;;;;;;2.04;100.00;97565.44;4975509;28;20512;-51
2021/12/19 09:20:18;;;;;;;22.67;10.18;;;;;;;1.91;100.00;97551.25;4980920;28;20069;-52
2021/12/19 09:22:46;;;;;;;19.25;9.95;;;;;;;1.59;100.00;97547.41;4973712;28;20082;-54
2021/12/19 09:25:19;;;;;;;22.45;10.52;;;;;;;1.73;100.00;97546.84;4961265;28;20834;-54
2021/12/19 09:27:48;;;;;;;28.13;12.07;;;;;;;1.58;100.00;97540.50;4960096;28;20485;-47
2021/12/19 09:30:17;;;;;;;33.78;13.10;;;;;;;1.65;100.00;97547.13;4961321;28;20062;-52
2021/12/19 09:32:47;;;;;;;41.47;13.35;;;;;;;1.70;100.00;97537.41;4963723;28;20070;-49
2021/12/19 09:35:16;;;;;;;21.52;10.23;;;;;;;1.86;100.00;97543.66;4969201;28;20069;-49
2021/12/19 09:37:44;;;;;;;15.38;8.43;;;;;;;1.78;100.00;97537.06;4974661;28;20516;-45
2021/12/19 09:40:19;;;;;;;22.40;10.55;;;;;;;1.82;100.00;97530.84;4962567;28;20070;-49
2021/12/19 09:42:49;;;;;;;19.58;10.65;;;;;;;1.95;100.00;97534.63;4981838;28;20077;-49
2021/12/19 09:45:18;;;;;;;;;;;;;;;1.85;100.00;97526.34;4978503;28;20088;-49
2021/12/19 09:47:47;;;;;;;42.33;9.55;;;;;;;2.00;100.00;97518.84;4964654;28;19956;-45
2021/12/19 09:50:16;;;;;;;19.35;8.32;;;;;;;1.75;100.00;97513.81;4962583;28;20062;-50
2021/12/19 09:52:45;;;;;;;22.98;8.70;;;;;;;1.96;100.00;97512.91;4961364;28;20073;-53
2021/12/19 09:55:17;;;;;;;35.05;13.13;;;;;;;1.88;100.00;97514.97;4960110;28;20090;-49
2021/12/19 09:57:46;;;;;;;32.17;11.88;;;;;;;2.25;100.00;97497.78;4957430;28;20070;-45
2021/12/19 10:00:15;;;;;;;22.25;10.15;;;;;;;1.99;100.00;97486.75;4960042;28;20086;-53
2021/12/19 10:02:44;;;;;;;23.20;10.30;;;;;;;1.73;100.00;97480.06;4959117;28;20077;-47
2021/12/19 10:05:19;;;;;;;35.60;13.57;;;;;;;1.92;100.00;97469.72;4961799;28;20076;-49
2021/12/19 10:07:51;;;;;;;22.20;9.23;;;;;;;2.05;100.00;97454.44;4968115;28;20169;-47
2021/12/19 10:10:27;;;;;;;25.80;11.50;;;;;;;2.10;100.00;97450.72;4979346;28;20081;-45
2021/12/19 10:12:58;;;;;;;33.63;12.43;;;;;;;2.17;100.00;97447.81;4959195;28;20051;-45
2021/12/19 10:15:32;;;;;;;26.80;10.60;;;;;;;2.01;100.00;97435.50;4961657;28;20059;-46
2021/12/19 10:18:03;;;;;;;23.52;10.70;;;;;;;2.02;100.00;97425.94;4973777;28;20073;-49
2021/12/19 10:20:46;;;;;;;24.10;9.23;;;;;;;2.17;100.00;97424.41;4980837;28;20054;-44
2021/12/19 10:23:19;;;;;;;23.90;9.90;;;;;;;1.62;100.00;97409.50;4976783;28;20066;-50
2021/12/19 10:25:56;;;;;;;18.98;8.60;;;;;;;1.79;100.00;97413.94;4975490;28;20078;-45
2021/12/19 10:28:25;;;;;;;19.02;8.07;;;;;;;1.89;100.00;97415.22;4975568;28;20516;-49
2021/12/19 10:30:53;;;;;;;17.70;8.13;;;;;;;1.69;100.00;97408.31;4981101;28;20211;-45
2021/12/19 10:33:23;;;;;;;17.80;8.43;;;;;;;2.00;100.00;97384.41;4982264;28;20459;-47
2021/12/19 10:35:55;;;;;;;15.73;8.57;;;;;;;1.88;100.00;97403.16;4970593;28;20517;-48
2021/12/19 10:38:25;;;;;;;14.55;8.55;;;;;;;1.67;100.00;97395.38;4961977;28;20545;-48
2021/12/19 10:40:54;;;;;;;;;;;;;;;1.75;100.00;97391.59;4964713;28;20636;-49
2021/12/19 10:43:27;;;;;;;12.43;7.13;;;;;;;1.93;100.00;97393.41;4972084;28;20595;-46
2021/12/19 10:45:58;;;;;;;16.02;7.82;;;;;;;2.27;100.00;97389.25;4959114;28;20079;-47
2021/12/19 10:48:30;;;;;;;16.73;8.32;;;;;;;2.34;100.00;97381.09;4957883;28;20565;-51
2021/12/19 10:51:03;;;;;;;9.30;6.18;;;;;;;2.22;100.00;97383.41;4976234;28;20077;-47
2021/12/19 10:53:36;;;;;;;11.30;6.97;;;;;;;2.40;100.00;97381.72;4965374;28;20079;-46
2021/12/19 10:56:09;;;;;;;19.17;8.30;;;;;;;2.37;100.00;97380.09;4959565;28;20070;-46
2021/12/19 10:58:47;;;;;;;19.02;8.60;;;;;;;2.25;100.00;97378.91;4966249;28;20117;-46
2021/12/19 11:01:26;;;;;;;17.40;8.95;;;;;;;2.48;100.00;97370.03;4984584;28;20089;-51
2021/12/19 11:03:57;;;;;;;20.92;10.30;;;;;;;2.53;100.00;97375.84;4988883;28;20077;-45
2021/12/19 11:06:35;;;;;;;17.35;8.88;;;;;;;2.48;100.00;97363.97;4983792;28;20437;-45
2021/12/19 11:09:07;;;;;;;18.35;9.00;;;;;;;2.47;100.00;97357.91;4967526;28;20070;-49
2021/12/19 11:11:46;;;;;;;31.23;12.80;;;;;;;2.50;100.00;97352.56;4975571;28;20080;-44
2021/12/19 11:14:17;;;;;;;27.15;13.35;;;;;;;2.56;100.00;97335.81;4984069;28;20059;-45
2021/12/19 11:16:45;;;;;;;23.90;11.32;;;;;;;2.60;100.00;97327.78;4981887;28;20069;-48
2021/12/19 11:19:14;;;;;;;28.98;11.98;;;;;;;2.48;100.00;97325.78;4988096;28;20535;-48
2021/12/19 11:21:44;;;;;;;34.83;14.75;;;;;;;2.66;100.00;97320.59;4983938;28;20094;-49
2021/12/19 11:24:15;;;;;;;19.10;7.65;;;;;;;2.43;100.00;97309.53;4981704;28;20484;-45
2021/12/19 11:26:44;;;;;;;;;;;;;;;2.53;100.00;97300.34;4969800;28;20684;-48
2021/12/19 11:29:14;;;;;;;18.70;9.48;;;;;;;2.63;100.00;97297.31;4962195;28;19965;-53
2021/12/19 11:31:46;;;;;;;26.15;11.32;;;;;;;2.52;100.00;97296.06;4961928;28;20073;-46
2021/12/19 11:34:21;;;;;;;26.75;11.70;;;;;;;2.86;100.00;97289.22;4967195;28;20484;-48
2021/12/19 11:36:57;;;;;;;31.48;13.05;;;;;;;2.57;100.00;97270.66;4983722;28;20085;-55
2021/12/19 11:39:28;;;;;;;25.45;11.82;;;;;;;2.69;100.00;97290.03;4958827;28;20078;-46
2021/12/19 11:42:13;;;;;;;32.33;13.70;;;;;;;2.36;100.00;97292.53;4958903;28;20067;-43
2021/12/19 11:44:56;;;;;;;27.58;13.65;;;;;;;2.46;100.00;97277.31;4977160;28;20480;-49
2021/12/19 11:47:38;;;;;;;23.73;10.88;;;;;;;2.44;100.00;97281.72;4984743;28;20543;-45
2021/12/19 11:50:19;;;;;;;25.50;11.13;;;;;;;2.49;100.00;97280.59;4982727;28;20058;-48
2021/12/19 11:52:51;;;;;;;28.08;13.57;;;;;;;2.75;100.00;97278.47;4983159;28;20351;-50
2021/12/19 11:55:29;;;;;;;18.50;10.15;;;;;;;2.61;100.00;97261.78;4977979;28;20694;-44
2021/12/19 11:58:32;;;;;;;18.73;9.48;;;;;;;2.66;100.00;97248.53;4964378;28;20671;-45
2021/12/19 12:01:11;;;;;;;15.75;8.63;;;;;;;2.34;100.00;97243.16;4965941;28;20505;-50
2021/12/19 12:03:49;;;;;;;18.95;8.07;;;;;;;2.29;100.00;97229.50;4988099;28;20632;-45
2021/12/19 12:06:37;;;;;;;17.80;9.80;;;;;;;2.43;100.00;97235.81;4983720;28;20070;-47
2021/12/19 12:09:27;;;;;;;15.15;8.50;;;;;;;2.53;100.00;97226.63;4975797;28;20428;-46
2021/12/19 12:12:34;;;;;;;22.05;11.02;;;;;;;2.43;100.00;97213.22;4984509;28;20117;-47
2021/12/19 12:15:08;;;;;;;23.85;10.77;;;;;;;2.53;100.00;97204.03;4933114;28;20166;-46
2021/12/19 12:17:45;;;;;;;21.27;9.60;;;;;;;2.55;100.00;97203.97;4971910;28;20692;-43
2021/12/19 12:20:29;;;;;;;23.75;10.27;;;;;;;2.66;100.00;97213.84;4985358;28;20073;-50
2021/12/19 12:23:03;;;;;;;12.93;7.63;;;;;;;2.98;100.00;97210.41;4979594;28;20062;-49
2021/12/19 12:25:34;;;;;;;21.88;10.98;;;;;;;2.72;100.00;97208.28;4964313;28;20062;-53
2021/12/19 12:28:08;;;;;;;22.05;11.48;;;;;;;2.91;100.00;97198.63;4987288;28;20064;-53
2021/12/19 12:30:40;;;;;;;29.00;13.13;;;;;;;2.99;100.00;97193.03;4983338;28;20567;-51
2021/12/19 12:33:10;;;;;;;19.83;11.32;;;;;;;3.04;100.00;97189.25;4982819;28;20077;-48
2021/12/19 12:35:42;;;;;;;31.35;15.38;;;;;;;3.00;100.00;97190.34;4979601;28;20100;-51